createdAt,value
2022-11-25T00:01:30.554Z,5.65
2022-11-25T00:03:58.828Z,5.70
2022-11-25T00:06:30.962Z,5.67
2022-11-25T00:09:04.164Z,5.68
2022-11-25T00:11:34.063Z,5.61
2022-11-25T00:14:01.512Z,5.65
2022-11-25T00:16:28.932Z,5.67
2022-11-25T00:18:57.459Z,5.70
2022-11-25T00:21:27.143Z,5.66
2022-11-25T00:23:56.872Z,5.64
2022-11-25T00:26:25.528Z,5.64
2022-11-25T00:28:53.727Z,5.61
2022-11-25T00:31:23.452Z,5.65
2022-11-25T00:33:51.575Z,5.57
2022-11-25T00:36:36.386Z,5.66
2022-11-25T00:39:09.463Z,5.66
2022-11-25T00:41:55.599Z,5.67
2022-11-25T00:44:41.661Z,5.55
2022-11-25T00:47:16.640Z,5.52
2022-11-25T00:49:46.433Z,5.45
2022-11-25T00:52:18.287Z,5.44
2022-11-25T00:54:47.624Z,5.44
2022-11-25T00:57:17.170Z,5.41
2022-11-25T00:59:44.558Z,5.30
2022-11-25T01:02:13.438Z,5.21
2022-11-25T01:04:41.275Z,5.23
2022-11-25T01:07:08.904Z,5.18
2022-11-25T01:09:36.481Z,5.19
2022-11-25T01:12:07.977Z,5.26
2022-11-25T01:14:35.645Z,5.24
2022-11-25T01:17:03.887Z,5.27
2022-11-25T01:19:33.621Z,5.30
2022-11-25T01:22:01.045Z,5.31
2022-11-25T01:24:28.515Z,5.30
2022-11-25T01:26:56.169Z,5.29
2022-11-25T01:29:24.219Z,5.29
2022-11-25T01:31:57.370Z,5.31
2022-11-25T01:34:27.035Z,5.32
2022-11-25T01:36:58.145Z,5.31
2022-11-25T01:39:32.048Z,5.23
2022-11-25T01:42:00.843Z,5.26
2022-11-25T01:44:32.841Z,5.27
2022-11-25T01:47:03.889Z,5.25
2022-11-25T01:49:43.235Z,5.26
2022-11-25T01:52:13.688Z,5.27
2022-11-25T01:54:59.856Z,5.26
2022-11-25T01:57:39.777Z,5.25
2022-11-25T02:00:09.796Z,5.30
2022-11-25T02:02:50.799Z,5.35
2022-11-25T02:05:20.954Z,5.29
2022-11-25T02:07:51.528Z,5.28
2022-11-25T02:10:27.028Z,5.31
2022-11-25T02:12:54.990Z,5.34
2022-11-25T02:15:22.902Z,5.44
2022-11-25T02:17:50.334Z,5.53
2022-11-25T02:20:20.915Z,5.56
2022-11-25T02:22:54.438Z,5.50
2022-11-25T02:25:31.321Z,5.55
2022-11-25T02:28:06.783Z,5.53
2022-11-25T02:30:35.483Z,5.55
2022-11-25T02:33:05.953Z,5.57
2022-11-25T02:35:34.753Z,5.60
2022-11-25T02:38:07.609Z,5.66
2022-11-25T02:40:52.848Z,5.62
2022-11-25T02:43:20.771Z,5.61
2022-11-25T02:46:07.201Z,5.66
2022-11-25T02:51:27.662Z,5.63
2022-11-25T02:53:59.138Z,5.59
2022-11-25T02:56:31.655Z,5.55
2022-11-25T02:58:59.437Z,5.48
2022-11-25T03:01:29.900Z,5.50
2022-11-25T03:03:57.977Z,5.51
2022-11-25T03:06:28.702Z,5.43
2022-11-25T03:08:56.771Z,5.39
2022-11-25T03:11:45.262Z,5.39
2022-11-25T03:14:13.250Z,5.38
2022-11-25T03:16:40.816Z,5.43
2022-11-25T03:19:08.667Z,5.41
2022-11-25T03:21:38.969Z,5.44
2022-11-25T03:24:07.074Z,5.48
2022-11-25T03:26:34.551Z,5.36
2022-11-25T03:29:02.103Z,5.27
2022-11-25T03:31:31.060Z,5.34
2022-11-25T03:33:58.559Z,5.32
2022-11-25T03:36:25.952Z,5.25
2022-11-25T03:38:53.334Z,5.44
2022-11-25T03:41:20.749Z,5.45
2022-11-25T03:43:49.100Z,5.49
2022-11-25T03:46:16.609Z,5.53
2022-11-25T03:48:44.410Z,5.57
2022-11-25T03:51:15.278Z,5.66
2022-11-25T03:53:44.069Z,5.75
2022-11-25T03:56:11.494Z,5.65
2022-11-25T03:58:38.844Z,5.64
2022-11-25T04:01:07.071Z,5.58
2022-11-25T04:03:34.700Z,5.55
2022-11-25T04:06:02.199Z,5.51
2022-11-25T04:08:30.903Z,5.58
2022-11-25T04:10:59.432Z,5.60
2022-11-25T04:13:30.445Z,5.54
2022-11-25T04:15:58.266Z,5.52
2022-11-25T04:18:26.571Z,5.48
2022-11-25T04:20:56.670Z,5.48
2022-11-25T04:23:24.372Z,5.46
2022-11-25T04:26:00.082Z,5.55
2022-11-25T04:28:34.423Z,5.57
2022-11-25T04:31:06.767Z,5.70
2022-11-25T04:33:36.170Z,5.63
2022-11-25T04:36:03.974Z,5.73
2022-11-25T04:38:31.641Z,5.68
2022-11-25T04:41:02.081Z,5.63
2022-11-25T04:43:33.245Z,5.60
2022-11-25T04:46:13.871Z,5.48
2022-11-25T04:48:44.725Z,5.50
2022-11-25T04:51:12.153Z,5.45
2022-11-25T04:53:40.282Z,5.46
2022-11-25T04:56:14.292Z,5.49
2022-11-25T04:59:02.595Z,5.34
2022-11-25T05:01:31.027Z,5.50
2022-11-25T05:04:08.564Z,5.51
2022-11-25T05:06:37.540Z,5.55
2022-11-25T05:09:06.126Z,5.61
2022-11-25T05:11:36.371Z,5.65
2022-11-25T05:14:03.942Z,5.57
2022-11-25T05:16:34.271Z,5.56
2022-11-25T05:19:02.420Z,5.53
2022-11-25T05:21:29.869Z,5.48
2022-11-25T05:23:57.255Z,5.48
2022-11-25T05:26:28.394Z,5.60
2022-11-25T05:28:58.797Z,5.56
2022-11-25T05:31:29.696Z,5.57
2022-11-25T05:34:00.860Z,5.52
2022-11-25T05:36:29.149Z,5.53
2022-11-25T05:38:57.610Z,5.53
2022-11-25T05:41:36.140Z,5.50
2022-11-25T05:44:05.331Z,5.51
2022-11-25T05:46:34.179Z,5.55
2022-11-25T05:49:01.656Z,5.51
2022-11-25T05:51:30.882Z,5.54
2022-11-25T05:54:00.279Z,5.50
2022-11-25T05:56:30.783Z,5.49
2022-11-25T05:59:21.210Z,5.47
2022-11-25T06:02:08.876Z,5.32
2022-11-25T06:04:36.723Z,5.25
2022-11-25T06:07:04.463Z,5.26
2022-11-25T06:09:32.093Z,5.15
2022-11-25T06:11:59.624Z,5.12
2022-11-25T06:14:27.044Z,5.15
2022-11-25T06:16:55.282Z,5.15
2022-11-25T06:19:28.290Z,5.15
2022-11-25T06:21:55.615Z,5.09
2022-11-25T06:24:23.162Z,5.08
2022-11-25T06:26:56.279Z,5.15
2022-11-25T06:29:23.777Z,5.21
2022-11-25T06:31:52.332Z,5.19
2022-11-25T06:34:42.649Z,5.12
2022-11-25T06:37:19.541Z,5.21
2022-11-25T06:39:47.568Z,5.30
2022-11-25T06:42:14.860Z,5.31
2022-11-25T06:44:42.206Z,5.31
2022-11-25T06:47:09.727Z,5.35
2022-11-25T06:49:37.056Z,5.49
2022-11-25T06:52:04.739Z,5.58
2022-11-25T06:54:32.148Z,5.62
2022-11-25T06:56:59.812Z,5.62
2022-11-25T06:59:27.206Z,5.73
2022-11-25T07:01:54.651Z,5.71
2022-11-25T07:04:22.020Z,5.74
2022-11-25T07:06:50.578Z,5.78
2022-11-25T07:09:19.624Z,5.70
2022-11-25T07:11:47.026Z,5.75
2022-11-25T07:14:16.846Z,5.82
2022-11-25T07:16:45.772Z,5.89
2022-11-25T07:19:15.478Z,5.86
2022-11-25T07:21:45.541Z,5.85
2022-11-25T07:24:17.978Z,5.85
2022-11-25T07:26:45.658Z,5.80
2022-11-25T07:29:49.979Z,5.85
2022-11-25T07:32:07.296Z,5.87
2022-11-25T07:34:37.872Z,5.88
2022-11-25T07:37:05.201Z,6.00
2022-11-25T07:39:32.710Z,6.06
2022-11-25T07:42:00.074Z,6.08
2022-11-25T07:44:27.388Z,6.19
2022-11-25T07:47:02.069Z,6.34
2022-11-25T07:49:29.544Z,6.46
2022-11-25T07:51:59.847Z,6.57
2022-11-25T07:54:27.365Z,6.62
2022-11-25T07:56:54.766Z,6.71
2022-11-25T07:59:23.363Z,6.80
2022-11-25T08:01:53.116Z,6.85
2022-11-25T08:04:21.784Z,6.83
2022-11-25T08:06:50.946Z,6.90
2022-11-25T08:09:21.511Z,6.97
2022-11-25T08:11:49.861Z,7.09
2022-11-25T08:14:17.667Z,7.09
2022-11-25T08:16:45.209Z,7.11
2022-11-25T08:19:15.586Z,7.23
2022-11-25T08:21:43.121Z,7.34
2022-11-25T08:24:16.349Z,7.42
2022-11-25T08:26:44.284Z,7.46
2022-11-25T08:29:14.449Z,7.53
2022-11-25T08:31:43.046Z,7.61
2022-11-25T08:34:18.748Z,7.66
2022-11-25T08:36:48.856Z,7.78
2022-11-25T08:39:44.406Z,7.93
2022-11-25T08:42:06.217Z,7.98
2022-11-25T08:44:34.261Z,8.07
2022-11-25T08:47:01.691Z,8.12
2022-11-25T08:49:34.793Z,8.17
2022-11-25T08:52:06.401Z,8.23
2022-11-25T08:54:33.797Z,8.28
2022-11-25T08:57:01.150Z,8.42
2022-11-25T08:59:28.468Z,8.55
2022-11-25T09:01:55.889Z,8.66
2022-11-25T09:04:23.459Z,8.74
2022-11-25T09:06:50.877Z,8.87
2022-11-25T09:09:18.221Z,9.00
2022-11-25T09:11:45.758Z,9.18
2022-11-25T09:14:13.990Z,9.37
2022-11-25T09:16:41.501Z,9.50
2022-11-25T09:19:11.840Z,9.68
2022-11-25T09:21:43.357Z,9.77
2022-11-25T09:24:10.737Z,10.21
2022-11-25T09:26:41.033Z,10.25
2022-11-25T09:29:08.836Z,10.19
2022-11-25T09:31:36.519Z,10.04
2022-11-25T09:34:03.999Z,10.13
2022-11-25T09:36:31.389Z,10.10
2022-11-25T09:38:58.867Z,10.03
2022-11-25T09:41:53.842Z,9.98
2022-11-25T09:44:45.932Z,10.00
2022-11-25T09:47:15.994Z,10.07
2022-11-25T09:50:08.199Z,10.06
2022-11-25T09:52:42.164Z,10.21
2022-11-25T09:55:13.868Z,10.17
2022-11-25T09:58:15.520Z,10.22
2022-11-25T10:00:46.602Z,10.52
2022-11-25T10:03:30.183Z,10.48
2022-11-25T10:06:07.698Z,10.62
2022-11-25T10:09:11.434Z,10.65
2022-11-25T10:11:53.742Z,10.80
2022-11-25T10:14:39.133Z,10.85
2022-11-25T10:17:25.139Z,10.95
2022-11-25T10:20:13.880Z,10.88
2022-11-25T10:22:44.262Z,10.81
2022-11-25T10:25:27.775Z,10.90
2022-11-25T10:28:02.081Z,11.06
2022-11-25T10:30:41.773Z,11.15
2022-11-25T10:33:22.913Z,11.27
2022-11-25T10:35:59.556Z,11.23
2022-11-25T10:38:41.454Z,11.30
2022-11-25T10:41:17.275Z,11.25
2022-11-25T10:43:47.810Z,11.24
2022-11-25T10:46:49.586Z,11.37
2022-11-25T10:49:29.941Z,11.39
2022-11-25T10:51:57.982Z,11.24
2022-11-25T10:54:28.222Z,11.35
2022-11-25T10:57:01.617Z,11.22
2022-11-25T10:59:34.601Z,11.38
2022-11-25T11:02:27.226Z,11.30
2022-11-25T11:05:32.896Z,11.30
2022-11-25T11:08:23.357Z,11.34
2022-11-25T11:11:09.140Z,11.23
2022-11-25T11:13:36.536Z,11.50
2022-11-25T11:16:04.120Z,11.44
2022-11-25T11:18:37.725Z,11.35
2022-11-25T11:21:07.718Z,11.44
2022-11-25T11:23:54.125Z,11.53
2022-11-25T11:26:26.566Z,11.59
2022-11-25T11:29:13.884Z,11.77
2022-11-25T11:31:48.645Z,11.78
2022-11-25T11:34:31.374Z,11.97
2022-11-25T11:37:17.891Z,11.89
2022-11-25T11:40:03.130Z,12.06
2022-11-25T11:42:49.500Z,12.03
2022-11-25T11:45:23.290Z,12.14
2022-11-25T11:48:09.101Z,12.13
2022-11-25T11:50:49.359Z,12.30
2022-11-25T11:53:47.727Z,12.30
2022-11-25T11:56:35.970Z,12.53
2022-11-25T11:59:24.944Z,12.46
2022-11-25T12:02:01.548Z,12.41
2022-11-25T12:05:04.912Z,12.46
2022-11-25T12:07:36.459Z,12.39
2022-11-25T12:10:16.642Z,12.39
2022-11-25T12:13:03.237Z,12.26
2022-11-25T12:15:41.356Z,12.23
2022-11-25T12:18:20.767Z,12.29
2022-11-25T12:20:57.641Z,12.25
2022-11-25T12:23:51.193Z,12.33
2022-11-25T12:26:29.236Z,12.19
2022-11-25T12:29:05.192Z,12.17
2022-11-25T12:31:39.847Z,12.16
2022-11-25T12:34:27.666Z,12.23
2022-11-25T12:37:14.677Z,12.16
2022-11-25T12:40:00.428Z,12.13
2022-11-25T12:42:30.834Z,12.12
2022-11-25T12:45:16.180Z,12.11
2022-11-25T12:47:45.137Z,12.12
2022-11-25T12:50:53.044Z,12.04
2022-11-25T12:54:12.590Z,12.06
2022-11-25T12:57:13.159Z,11.97
2022-11-25T13:00:39.743Z,12.02
2022-11-25T13:03:15.312Z,11.92
2022-11-25T13:06:02.770Z,12.04
2022-11-25T13:09:23.980Z,12.03
2022-11-25T13:12:05.206Z,12.13
2022-11-25T13:14:33.150Z,12.14
2022-11-25T13:17:01.390Z,12.18
2022-11-25T13:19:29.309Z,12.02
2022-11-25T13:22:06.523Z,11.97
2022-11-25T13:24:44.301Z,12.12
2022-11-25T13:27:32.792Z,11.95
2022-11-25T13:30:01.492Z,12.00
2022-11-25T13:32:37.060Z,12.06
2022-11-25T13:35:22.383Z,11.91
2022-11-25T13:37:50.985Z,12.05
2022-11-25T13:40:21.991Z,11.93
2022-11-25T13:42:50.649Z,11.91
2022-11-25T13:45:30.063Z,11.86
2022-11-25T13:48:06.951Z,11.75
2022-11-25T13:50:55.522Z,11.75
2022-11-25T13:53:33.301Z,11.72
2022-11-25T13:56:24.477Z,11.65
2022-11-25T13:59:10.247Z,11.50
2022-11-25T14:01:40.695Z,11.41
2022-11-25T14:04:10.537Z,11.34
2022-11-25T14:07:02.216Z,11.35
2022-11-25T14:09:45.367Z,11.28
2022-11-25T14:12:21.641Z,11.25
2022-11-25T14:14:56.216Z,11.34
2022-11-25T14:17:30.881Z,11.30
2022-11-25T14:20:35.402Z,11.23
2022-11-25T14:23:22.201Z,11.13
2022-11-25T14:25:56.110Z,11.09
2022-11-25T14:29:08.798Z,11.00
2022-11-25T14:31:38.268Z,10.96
2022-11-25T14:34:22.240Z,10.97
2022-11-25T14:36:54.626Z,10.91
2022-11-25T14:39:48.176Z,10.89
2022-11-25T14:42:19.509Z,10.84
2022-11-25T14:44:52.626Z,10.95
2022-11-25T14:47:27.989Z,11.07
2022-11-25T14:52:50.119Z,10.91
2022-11-25T14:55:28.640Z,11.22
2022-11-25T14:57:56.293Z,11.06
2022-11-25T15:00:24.248Z,10.88
2022-11-25T15:02:57.622Z,10.82
2022-11-25T15:05:27.287Z,10.72
2022-11-25T15:08:08.284Z,10.65
2022-11-25T15:10:43.945Z,10.57
2022-11-25T15:13:34.369Z,10.44
2022-11-25T15:16:07.067Z,10.39
2022-11-25T15:18:35.680Z,10.35
2022-11-25T15:21:04.335Z,10.28
2022-11-25T15:23:37.114Z,10.19
2022-11-25T15:26:15.177Z,10.10
2022-11-25T15:28:42.698Z,10.01
2022-11-25T15:31:16.508Z,9.95
2022-11-25T15:33:44.779Z,9.89
2022-11-25T15:36:12.237Z,9.84
2022-11-25T15:38:46.632Z,9.81
2022-11-25T15:41:35.981Z,9.74
2022-11-25T15:44:05.571Z,9.71
2022-11-25T15:46:37.970Z,9.69
2022-11-25T15:49:08.047Z,9.69
2022-11-25T15:51:41.688Z,9.60
2022-11-25T15:54:51.876Z,9.53
2022-11-25T15:57:23.170Z,9.45
2022-11-25T15:59:56.090Z,9.43
2022-11-25T16:02:41.560Z,9.39
2022-11-25T16:05:15.163Z,9.35
2022-11-25T16:07:52.016Z,9.30
2022-11-25T16:10:20.844Z,9.22
2022-11-25T16:13:23.404Z,9.17
2022-11-25T16:16:08.180Z,9.07
2022-11-25T16:18:40.659Z,9.09
2022-11-25T16:21:21.963Z,9.05
2022-11-25T16:23:58.061Z,8.99
2022-11-25T16:26:30.049Z,8.93
2022-11-25T16:29:02.290Z,8.93
2022-11-25T16:31:29.676Z,9.04
2022-11-25T16:34:09.691Z,8.92
2022-11-25T16:36:37.069Z,8.72
2022-11-25T16:39:04.480Z,8.70
2022-11-25T16:41:31.909Z,8.63
2022-11-25T16:44:00.864Z,8.62
2022-11-25T16:46:30.272Z,8.60
2022-11-25T16:48:57.713Z,8.60
2022-11-25T16:51:25.858Z,8.62
2022-11-25T16:53:53.304Z,8.67
2022-11-25T16:56:29.697Z,8.67
2022-11-25T16:59:00.774Z,8.67
2022-11-25T17:01:30.052Z,8.60
2022-11-25T17:03:57.661Z,8.60
2022-11-25T17:06:28.402Z,8.50
2022-11-25T17:08:55.821Z,8.50
2022-11-25T17:14:00.788Z,8.35
2022-11-25T17:14:35.764Z,8.25
2022-11-25T17:17:04.511Z,8.23
2022-11-25T17:19:32.013Z,8.25
2022-11-25T17:21:59.461Z,8.25
2022-11-25T17:24:27.328Z,8.23
2022-11-25T17:26:57.116Z,8.26
2022-11-25T17:29:39.854Z,8.17
2022-11-25T17:32:12.613Z,8.19
2022-11-25T17:34:40.300Z,8.19
2022-11-25T17:37:14.256Z,8.10
2022-11-25T17:39:42.252Z,8.16
2022-11-25T17:42:15.819Z,8.11
2022-11-25T17:44:49.879Z,8.05
2022-11-25T17:47:20.392Z,8.02
2022-11-25T17:49:49.580Z,8.12
2022-11-25T17:52:17.067Z,7.89
2022-11-25T17:54:44.484Z,7.98
2022-11-25T17:57:15.600Z,7.99
2022-11-25T17:59:46.328Z,8.02
2022-11-25T18:02:18.965Z,7.92
2022-11-25T18:04:46.562Z,7.98
2022-11-25T18:07:16.961Z,7.94
2022-11-25T18:09:45.329Z,7.89
2022-11-25T18:12:26.727Z,7.91
2022-11-25T18:14:55.840Z,7.90
2022-11-25T18:17:23.195Z,7.88
2022-11-25T18:19:55.069Z,7.85
2022-11-25T18:22:24.165Z,7.81
2022-11-25T18:24:52.627Z,7.85
2022-11-25T18:27:27.035Z,7.78
2022-11-25T18:29:55.795Z,7.78
2022-11-25T18:32:25.486Z,7.81
2022-11-25T18:34:53.102Z,7.79
2022-11-25T18:37:20.505Z,7.76
2022-11-25T18:39:47.882Z,7.69
2022-11-25T18:42:27.455Z,7.69
2022-11-25T18:44:56.112Z,7.64
2022-11-25T18:47:23.651Z,7.61
2022-11-25T18:49:55.893Z,7.56
2022-11-25T18:52:24.924Z,7.57
2022-11-25T18:54:52.463Z,7.58
2022-11-25T18:57:20.049Z,7.57
2022-11-25T18:59:55.964Z,7.46
2022-11-25T19:02:35.330Z,7.47
2022-11-25T19:05:06.505Z,7.45
2022-11-25T19:07:34.003Z,7.43
2022-11-25T19:10:01.390Z,7.41
2022-11-25T19:12:28.761Z,7.41
2022-11-25T19:14:57.310Z,7.38
2022-11-25T19:17:26.109Z,7.40
2022-11-25T19:19:53.488Z,7.39
2022-11-25T19:22:22.744Z,7.31
2022-11-25T19:24:52.330Z,7.37
2022-11-25T19:27:23.485Z,7.33
2022-11-25T19:29:52.707Z,7.31
2022-11-25T19:32:26.348Z,7.35
2022-11-25T19:35:00.904Z,7.36
2022-11-25T19:37:30.234Z,7.27
2022-11-25T19:39:57.826Z,7.21
2022-11-25T19:42:25.787Z,7.21
2022-11-25T19:44:53.106Z,7.19
2022-11-25T19:47:23.377Z,7.17
2022-11-25T19:49:57.187Z,7.12
2022-11-25T19:52:37.870Z,7.12
2022-11-25T19:55:17.613Z,7.16
2022-11-25T19:57:46.327Z,7.10
2022-11-25T20:00:15.663Z,7.07
2022-11-25T20:02:43.912Z,7.01
2022-11-25T20:05:17.804Z,6.95
2022-11-25T20:07:45.410Z,6.97
2022-11-25T20:10:19.989Z,7.02
2022-11-25T20:12:47.997Z,6.97
2022-11-25T20:15:15.464Z,6.92
2022-11-25T20:17:46.929Z,6.93
2022-11-25T20:20:44.077Z,6.94
2022-11-25T20:23:44.722Z,6.96
2022-11-25T20:26:26.868Z,7.00
2022-11-25T20:28:54.222Z,6.97
2022-11-25T20:31:22.191Z,6.96
2022-11-25T20:33:50.310Z,7.01
2022-11-25T20:36:26.285Z,6.94
2022-11-25T20:38:54.800Z,6.93
2022-11-25T20:41:27.695Z,6.90
2022-11-25T20:43:56.451Z,6.86
2022-11-25T20:46:29.997Z,6.95
2022-11-25T20:49:00.415Z,6.89
2022-11-25T20:51:28.478Z,6.90
2022-11-25T20:53:58.031Z,6.91
2022-11-25T20:56:27.377Z,6.87
2022-11-25T20:58:57.004Z,6.85
2022-11-25T21:01:25.159Z,6.92
2022-11-25T21:03:52.841Z,6.92
2022-11-25T21:06:29.432Z,6.95
2022-11-25T21:08:59.729Z,6.94
2022-11-25T21:11:28.119Z,6.97
2022-11-25T21:13:55.424Z,7.00
2022-11-25T21:16:23.008Z,6.91
2022-11-25T21:18:50.312Z,6.87
2022-11-25T21:21:25.780Z,6.80
2022-11-25T21:23:53.133Z,6.97
2022-11-25T21:26:23.550Z,6.95
2022-11-25T21:28:53.021Z,6.98
2022-11-25T21:31:25.202Z,6.84
2022-11-25T21:33:57.895Z,6.91
2022-11-25T21:36:30.835Z,6.81
2022-11-25T21:39:10.077Z,6.86
2022-11-25T21:41:40.887Z,6.80
2022-11-25T21:44:10.371Z,6.83
2022-11-25T21:46:37.791Z,6.77
2022-11-25T21:49:10.963Z,6.68
2022-11-25T21:51:38.253Z,6.67
2022-11-25T21:54:05.640Z,6.67
2022-11-25T21:56:34.576Z,6.71
2022-11-25T21:59:06.585Z,6.70
2022-11-25T22:01:33.930Z,6.77
2022-11-25T22:04:01.366Z,6.83
2022-11-25T22:06:30.552Z,6.72
2022-11-25T22:08:58.242Z,6.70
2022-11-25T22:11:35.445Z,6.67
2022-11-25T22:14:07.842Z,6.68
2022-11-25T22:16:36.723Z,6.67
2022-11-25T22:19:04.224Z,6.64
2022-11-25T22:21:31.708Z,6.62
2022-11-25T22:23:59.020Z,6.66
2022-11-25T22:26:34.200Z,6.71
2022-11-25T22:29:02.339Z,6.71
2022-11-25T22:31:29.920Z,6.80
2022-11-25T22:33:57.306Z,6.81
2022-11-25T22:36:35.962Z,6.79
2022-11-25T22:39:20.549Z,6.79
2022-11-25T22:41:54.349Z,6.80
2022-11-25T22:44:28.692Z,6.81
2022-11-25T22:46:56.103Z,6.82
2022-11-25T22:49:26.419Z,6.78
2022-11-25T22:51:54.545Z,6.78
2022-11-25T22:54:25.157Z,6.74
2022-11-25T22:56:52.633Z,6.76
2022-11-25T22:59:19.997Z,6.80
2022-11-25T23:01:47.658Z,6.86
2022-11-25T23:04:20.235Z,6.87
2022-11-25T23:06:48.099Z,6.86
2022-11-25T23:09:19.759Z,6.84
2022-11-25T23:11:47.833Z,6.87
2022-11-25T23:14:15.474Z,6.86
2022-11-25T23:16:43.182Z,6.75
2022-11-25T23:19:16.842Z,6.75
2022-11-25T23:21:45.715Z,6.77
2022-11-25T23:24:16.493Z,6.81
2022-11-25T23:26:44.166Z,6.77
2022-11-25T23:29:11.575Z,6.78
2022-11-25T23:31:39.838Z,6.76
2022-11-25T23:34:08.139Z,6.77
2022-11-25T23:36:46.106Z,6.77
2022-11-25T23:39:21.449Z,6.80
2022-11-25T23:41:49.641Z,6.81
2022-11-25T23:44:24.621Z,6.85
2022-11-25T23:46:54.665Z,6.81
2022-11-25T23:49:28.790Z,6.88
2022-11-25T23:52:02.135Z,6.88
2022-11-25T23:54:40.579Z,6.87
2022-11-25T23:57:30.582Z,6.85
2022-11-25T23:59:58.307Z,6.86
